| time (UTC) | temp F | wind direction | speed MPH | gust MPH | rain 1hr in | rain 24hr in | rain mn in | humidity % | barometer mb |
| 20260506044517 | 76 | 0.0 | 0.0 | 0.00 | 0.00 | 0.00 | 88 | 1005.9 | |
| 20260506043016 | 76 | 0.0 | 0.0 | 0.00 | 0.00 | 0.00 | 87 | 1005.8 | |
| 20260506041509 | 76 | 0.0 | 0.0 | 0.00 | 0.00 | 0.00 | 87 | 1005.7 | |
| 20260506040005 | 76 | 0.0 | 0.0 | 0.00 | 0.00 | 0.00 | 86 | 1005.8 | |
| 20260506034602 | 76 | 0.0 | 0.0 | 0.00 | 0.00 | 0.00 | 85 | 1005.6 | |
| 20260506033056 | 76 | 0.0 | 0.0 | 0.00 | 0.00 | 0.00 | 84 | 1005.6 | |
| 20260506031556 | 77 | 0.0 | 0.0 | 0.00 | 0.00 | 0.00 | 83 | 1005.4 | |
| 20260506030047 | 77 | 0.0 | 0.0 | 0.00 | 0.00 | 0.00 | 82 | 1005.3 | |
| 20260506024546 | 78 | 0.0 | 0.0 | 0.00 | 0.00 | 0.00 | 82 | 1005.0 | |
| 20260506023037 | 78 | 0.0 | 0.0 | 0.00 | 0.00 | 0.00 | 81 | 1004.6 | |
| 20260506021549 | 79 | 0.0 | 0.0 | 0.00 | 0.00 | 0.00 | 80 | 1004.6 | |
| 20260506020028 | 80 | 0.0 | 0.0 | 0.00 | 0.00 | 0.00 | 78 | 1004.2 | |
| 20260506014526 | 80 | 0.0 | 0.0 | 0.00 | 0.00 | 0.00 | 77 | 1004.2 | |
| 20260506013019 | 81 | 0.0 | 0.0 | 0.00 | 0.00 | 0.00 | 76 | 1003.9 | |
| 20260506011523 | 82 | 0.0 | 0.0 | 0.00 | 0.00 | 0.00 | 74 | 1003.7 | |
| 20260506010013 | 83 | 0.0 | 0.0 | 0.00 | 0.00 | 0.00 | 71 | 1003.6 | |
| 20260506004508 | 84 | 0.0 | 0.0 | 0.00 | 0.00 | 0.00 | 69 | 1003.5 | |
| 20260506003005 | 85 | 268 | 2.0 | 11.0 | 0.00 | 0.00 | 0.00 | 67 | 1003.3 |
| 20260506001505 | 86 | 28 | 2.0 | 9.0 | 0.00 | 0.00 | 0.00 | 65 | 1003.5 |
| 20260506000004 | 87 | 28 | 2.0 | 9.0 | 0.00 | 0.00 | 0.00 | 65 | 1003.5 |
| 20260505234510 | 87 | 28 | 0.0 | 7.0 | 0.00 | 0.00 | 0.00 | 65 | 1003.5 |
| 20260505233003 | 87 | 28 | 2.0 | 12.0 | 0.00 | 0.00 | 0.00 | 64 | 1003.3 |
| 20260505231503 | 88 | 28 | 0.0 | 12.0 | 0.00 | 0.00 | 0.00 | 63 | 1003.4 |
| 20260505230002 | 88 | 28 | 1.0 | 10.0 | 0.00 | 0.00 | 0.00 | 63 | 1003.3 |
| 20260505224502 | 88 | 28 | 3.0 | 14.0 | 0.00 | 0.00 | 0.00 | 62 | 1003.3 |
| 20260505223001 | 89 | 28 | 4.0 | 13.0 | 0.00 | 0.00 | 0.00 | 62 | 1003.4 |
| 20260505221500 | 90 | 28 | 0.0 | 12.0 | 0.00 | 0.00 | 0.00 | 62 | 1003.3 |
| 20260505214604 | 90 | 28 | 3.0 | 11.0 | 0.00 | 0.00 | 0.00 | 60 | 1003.2 |
| 20260505213056 | 90 | 28 | 4.0 | 11.0 | 0.00 | 0.00 | 0.00 | 60 | 1003.5 |
| 20260505211622 | 90 | 28 | 0.0 | 9.0 | 0.00 | 0.00 | 0.00 | 60 | 1003.8 |
| 20260505210055 | 91 | 28 | 2.0 | 10.0 | 0.00 | 0.00 | 0.00 | 61 | 1003.9 |
| 20260505204552 | 90 | 28 | 1.0 | 14.0 | 0.00 | 0.00 | 0.00 | 60 | 1004.0 |
| 20260505203113 | 91 | 28 | 2.0 | 11.0 | 0.00 | 0.00 | 0.00 | 59 | 1004.2 |
| 20260505201547 | 90 | 28 | 0.0 | 11.0 | 0.00 | 0.00 | 0.00 | 60 | 1004.3 |
| 20260505200046 | 90 | 28 | 4.0 | 13.0 | 0.00 | 0.00 | 0.00 | 61 | 1004.1 |
| 20260505194544 | 89 | 28 | 0.0 | 8.0 | 0.00 | 0.00 | 0.00 | 63 | 1004.4 |
| 20260505193041 | 89 | 28 | 0.0 | 8.0 | 0.00 | 0.00 | 0.00 | 62 | 1004.5 |
| 20260505191545 | 89 | 28 | 4.0 | 11.0 | 0.00 | 0.00 | 0.00 | 63 | 1004.7 |
| 20260505190042 | 88 | 28 | 4.0 | 13.0 | 0.00 | 0.00 | 0.00 | 65 | 1005.0 |
| 20260505184545 | 87 | 28 | 1.0 | 8.0 | 0.00 | 0.00 | 0.00 | 67 | 1005.3 |
| 20260505183040 | 87 | 28 | 3.0 | 12.0 | 0.00 | 0.00 | 0.00 | 68 | 1005.6 |
| 20260505181530 | 86 | 28 | 4.0 | 13.0 | 0.00 | 0.00 | 0.00 | 67 | 1005.7 |
| 20260505180029 | 85 | 28 | 6.0 | 16.0 | 0.00 | 0.00 | 0.00 | 67 | 1006.0 |
| 20260505174526 | 85 | 28 | 0.0 | 15.0 | 0.00 | 0.00 | 0.00 | 68 | 1006.1 |
| 20260505173024 | 85 | 28 | 2.0 | 13.0 | 0.00 | 0.00 | 0.00 | 68 | 1006.2 |
| 20260505171522 | 84 | 28 | 3.0 | 12.0 | 0.00 | 0.00 | 0.00 | 69 | 1006.3 |
| 20260505170032 | 83 | 28 | 3.0 | 19.0 | 0.00 | 0.00 | 0.00 | 70 | 1006.2 |
| 20260505164518 | 83 | 28 | 8.0 | 16.0 | 0.00 | 0.00 | 0.00 | 71 | 1006.2 |
| 20260505163018 | 82 | 28 | 3.0 | 14.0 | 0.00 | 0.00 | 0.00 | 71 | 1006.3 |
| 20260505161512 | 81 | 28 | 2.0 | 14.0 | 0.00 | 0.00 | 0.00 | 74 | 1006.5 |
| 20260505153004 | 78 | 28 | 4.0 | 14.0 | 0.00 | 0.00 | 0.00 | 76 | 1006.6 |
| 20260505151501 | 78 | 28 | 5.0 | 20.0 | 0.00 | 0.00 | 0.00 | 78 | 1006.6 |
| 20260505124539 | 72 | 0.0 | 0.0 | 0.00 | 0.00 | 0.00 | 88 | 1005.6 | |
| 20260505123035 | 72 | 0.0 | 0.0 | 0.00 | 0.00 | 0.00 | 88 | 1005.3 | |
| 20260505121537 | 71 | 0.0 | 0.0 | 0.00 | 0.00 | 0.00 | 88 | 1005.2 | |
| 20260505120028 | 71 | 0.0 | 0.0 | 0.00 | 0.00 | 0.00 | 88 | 1005.0 | |
| 20260505114522 | 71 | 0.0 | 0.0 | 0.00 | 0.01 | 0.00 | 88 | 1004.8 | |
| 20260505113031 | 71 | 0.0 | 0.0 | 0.00 | 0.01 | 0.00 | 88 | 1004.9 | |
| 20260505111525 | 71 | 0.0 | 0.0 | 0.00 | 0.01 | 0.00 | 88 | 1004.6 | |
| 20260505101558 | 71 | 0.0 | 0.0 | 0.00 | 0.01 | 0.00 | 89 | 1005.1 | |
| 20260505100055 | 71 | 0.0 | 0.0 | 0.00 | 0.01 | 0.00 | 89 | 1004.8 | |
| 20260505094558 | 70 | 0.0 | 0.0 | 0.00 | 0.01 | 0.00 | 89 | 1005.2 | |
| 20260505093051 | 70 | 0.0 | 0.0 | 0.00 | 0.01 | 0.00 | 89 | 1005.2 | |
| 20260505091539 | 70 | 0.0 | 0.0 | 0.00 | 0.01 | 0.00 | 89 | 1005.3 | |
| 20260505090034 | 70 | 0.0 | 0.0 | 0.00 | 0.01 | 0.00 | 89 | 1005.4 | |
| 20260505084532 | 70 | 0.0 | 0.0 | 0.00 | 0.01 | 0.00 | 89 | 1005.4 | |
| 20260505083025 | 70 | 0.0 | 0.0 | 0.00 | 0.01 | 0.00 | 89 | 1005.8 | |
| 20260505081522 | 70 | 0.0 | 0.0 | 0.00 | 0.01 | 0.00 | 89 | 1006.0 | |
| 20260505080025 | 70 | 0.0 | 0.0 | 0.00 | 0.01 | 0.00 | 88 | 1006.2 | |
| 20260505074513 | 71 | 0.0 | 0.0 | 0.00 | 0.01 | 0.00 | 88 | 1006.0 | |
| 20260505073008 | 71 | 0.0 | 0.0 | 0.00 | 0.01 | 0.00 | 88 | 1006.2 | |
| 20260505071504 | 71 | 0.0 | 0.0 | 0.00 | 0.01 | 0.00 | 88 | 1006.6 | |
| 20260505070106 | 71 | 0.0 | 0.0 | 0.00 | 0.01 | 0.00 | 87 | 1006.7 | |
| 20260505064558 | 71 | 0.0 | 0.0 | 0.00 | 0.01 | 0.00 | 87 | 1006.7 | |
| 20260505063051 | 71 | 0.0 | 0.0 | 0.00 | 0.01 | 0.00 | 86 | 1006.8 | |
| 20260505061610 | 71 | 0.0 | 0.0 | 0.00 | 0.01 | 0.00 | 85 | 1006.7 | |
| 20260505060050 | 72 | 0.0 | 0.0 | 0.00 | 0.01 | 0.00 | 85 | 1007.0 |